FLMO weather

Monze Airport
Monze, Southern Province, Zambia

Public forecast

Using degrees Celsius for public forecast. Weather courtesy of forecast.io.

METAR (pilot weather report)

Report is more than 6 hours old.

Closest report is Choma Airport, 42.3 nm (78.3 km) SW. Retrieved 2010/07/23 06:00 UTC (9 years ago):

FLCH 230600Z 00903KT CAVOK 12/09

TAF (pilot weather forecast)

Forecast is more than 12 hours old.

Closest forecast is Kenneth Kaunda International Airport Lusaka, 78.7 nm (145.7 km) NE. Retrieved 2019/08/20 00:00 UTC (1 day ago):

TAF FLKK 192200Z 2000/2106 VRB03KT CAVOK BECMG 2005/2009 11010KT 9000 HZ NSC BECMG 2010/2014 13010G15KT BECMG 2016/2018 10005KT